createdAt,value
2018-08-16T00:01:43.335Z,19.70
2018-08-16T00:06:46.745Z,19.80
2018-08-16T00:11:50.013Z,19.60
2018-08-16T00:16:53.383Z,19.60
2018-08-16T00:21:56.710Z,19.50
2018-08-16T00:27:00.063Z,19.70
2018-08-16T00:32:03.420Z,19.70
2018-08-16T00:37:06.730Z,19.60
2018-08-16T00:42:10.117Z,19.80
2018-08-16T00:47:13.440Z,19.70
2018-08-16T00:52:16.734Z,19.70
2018-08-16T00:57:20.047Z,19.70
2018-08-16T01:02:23.608Z,19.70
2018-08-16T01:07:26.978Z,19.60
2018-08-16T01:12:30.333Z,19.50
2018-08-16T01:17:33.724Z,19.60
2018-08-16T01:22:37.171Z,19.60
2018-08-16T01:27:40.532Z,19.40
2018-08-16T01:32:43.867Z,19.40
2018-08-16T01:37:47.147Z,19.50
2018-08-16T01:42:50.470Z,19.40
2018-08-16T01:47:53.792Z,19.40
2018-08-16T01:52:57.236Z,19.30
2018-08-16T01:58:00.641Z,19.30
2018-08-16T02:03:04.010Z,19.30
2018-08-16T02:08:07.360Z,19.20
2018-08-16T02:13:10.733Z,19.20
2018-08-16T02:18:14.071Z,19.20
2018-08-16T02:23:17.465Z,19.20
2018-08-16T02:28:21.019Z,19.10
2018-08-16T02:33:24.421Z,19.20
2018-08-16T02:38:27.711Z,19.10
2018-08-16T02:43:31.029Z,19.00
2018-08-16T02:48:34.399Z,19.00
2018-08-16T02:53:37.717Z,18.90
2018-08-16T02:58:41.068Z,18.90
2018-08-16T03:03:44.409Z,19.00
2018-08-16T03:08:47.766Z,18.90
2018-08-16T03:13:51.140Z,19.00
2018-08-16T03:18:54.476Z,18.80
2018-08-16T03:23:57.843Z,18.80
2018-08-16T03:29:01.316Z,18.80
2018-08-16T03:34:04.688Z,18.80
2018-08-16T03:39:09.361Z,18.80
2018-08-16T03:44:12.709Z,18.70
2018-08-16T03:49:15.997Z,18.70
2018-08-16T03:54:19.344Z,18.70
2018-08-16T03:59:26.232Z,18.60
2018-08-16T04:04:29.573Z,18.70
2018-08-16T04:09:32.920Z,18.70
2018-08-16T04:14:36.338Z,18.60
2018-08-16T04:19:39.729Z,18.60
2018-08-16T04:24:43.111Z,18.50
2018-08-16T04:29:46.704Z,18.60
2018-08-16T04:34:50.115Z,18.50
2018-08-16T04:39:53.420Z,18.50
2018-08-16T04:44:56.902Z,18.50
2018-08-16T04:50:00.341Z,18.70
2018-08-16T04:55:04.481Z,18.70
2018-08-16T05:00:10.575Z,18.90
2018-08-16T05:05:14.045Z,19.10
2018-08-16T05:10:17.391Z,19.40
2018-08-16T05:15:20.690Z,19.70
2018-08-16T05:20:24.110Z,20.00
2018-08-16T05:25:27.523Z,20.20
2018-08-16T05:30:31.572Z,20.40
2018-08-16T05:35:34.911Z,21.00
2018-08-16T05:40:38.401Z,21.80
2018-08-16T05:45:41.891Z,21.80
2018-08-16T05:50:45.236Z,22.40
2018-08-16T05:55:48.520Z,22.50
2018-08-16T06:00:51.827Z,22.70
2018-08-16T06:05:55.231Z,23.00
2018-08-16T06:10:58.552Z,23.20
2018-08-16T06:16:01.933Z,23.40
2018-08-16T06:21:05.331Z,23.30
2018-08-16T06:26:08.891Z,23.80
2018-08-16T06:31:12.264Z,23.80
2018-08-16T06:36:15.627Z,24.00
2018-08-16T06:41:19.103Z,24.30
2018-08-16T06:46:22.626Z,24.30
2018-08-16T06:51:25.924Z,23.80
2018-08-16T06:56:29.406Z,24.40
2018-08-16T07:01:32.895Z,24.60
2018-08-16T07:06:36.240Z,24.40
2018-08-16T07:11:39.520Z,24.30
2018-08-16T07:16:42.846Z,24.20
2018-08-16T07:21:46.246Z,24.50
2018-08-16T07:26:49.555Z,24.10
2018-08-16T07:31:53.120Z,24.20
2018-08-16T07:36:56.875Z,24.20
2018-08-16T07:42:00.324Z,24.00
2018-08-16T07:47:04.070Z,24.30
2018-08-16T07:52:08.142Z,24.20
2018-08-16T07:57:11.694Z,23.70
2018-08-16T08:02:15.417Z,23.50
2018-08-16T08:07:19.069Z,23.40
2018-08-16T08:12:22.766Z,23.40
2018-08-16T08:17:26.474Z,23.60
2018-08-16T08:22:30.167Z,22.90
2018-08-16T08:27:33.936Z,23.20
2018-08-16T08:32:37.610Z,22.60
2018-08-16T08:37:52.337Z,23.00
2018-08-16T08:42:55.932Z,22.90
2018-08-16T08:47:59.589Z,23.40
2018-08-16T08:53:14.370Z,23.50
2018-08-16T08:58:29.204Z,23.40
2018-08-16T09:03:32.889Z,23.70
2018-08-16T09:08:36.534Z,23.70
2018-08-16T09:13:52.200Z,23.30
2018-08-16T09:18:56.268Z,23.70
2018-08-16T09:23:59.962Z,23.80
2018-08-16T09:30:08.705Z,24.00
2018-08-16T09:35:12.350Z,23.90
2018-08-16T09:40:16.035Z,24.50
2018-08-16T09:45:30.798Z,24.30
2018-08-16T09:50:34.461Z,25.00
2018-08-16T09:55:38.169Z,24.50
2018-08-16T10:00:47.051Z,24.90
2018-08-16T10:05:50.690Z,25.50
2018-08-16T10:10:54.300Z,24.80
2018-08-16T10:15:58.007Z,25.80
2018-08-16T10:21:01.672Z,26.00
2018-08-16T10:26:05.353Z,26.30
2018-08-16T10:31:08.996Z,27.30
2018-08-16T10:36:13.476Z,27.30
2018-08-16T10:41:17.082Z,27.50
2018-08-16T10:46:20.771Z,26.30
2018-08-16T10:51:24.378Z,27.40
2018-08-16T10:56:28.098Z,27.10
2018-08-16T11:01:31.749Z,27.40
2018-08-16T11:06:35.421Z,28.20
2018-08-16T11:11:39.506Z,28.70
2018-08-16T11:16:43.080Z,27.50
2018-08-16T11:21:46.758Z,27.60
2018-08-16T11:26:55.055Z,26.80
2018-08-16T11:31:58.790Z,28.20
2018-08-16T11:37:02.396Z,28.20
2018-08-16T11:42:05.998Z,27.70
2018-08-16T11:47:09.635Z,27.20
2018-08-16T11:52:13.339Z,29.10
2018-08-16T11:57:16.977Z,28.40
2018-08-16T12:02:20.663Z,28.50
2018-08-16T12:07:24.371Z,28.60
2018-08-16T12:12:28.037Z,28.80
2018-08-16T12:17:31.688Z,29.80
2018-08-16T12:22:35.320Z,30.00
2018-08-16T12:27:38.964Z,29.40
2018-08-16T12:32:42.701Z,29.40
2018-08-16T12:37:46.404Z,29.30
2018-08-16T12:42:50.003Z,30.20
2018-08-16T12:47:53.631Z,29.60
2018-08-16T12:52:57.332Z,30.10
2018-08-16T12:58:01.075Z,29.20
2018-08-16T13:03:04.813Z,29.30
2018-08-16T13:08:08.754Z,29.80
2018-08-16T13:13:12.553Z,30.80
2018-08-16T13:18:16.323Z,29.90
2018-08-16T13:23:20.112Z,28.70
2018-08-16T13:28:23.764Z,29.80
2018-08-16T13:33:27.888Z,29.00
2018-08-16T13:38:31.561Z,28.70
2018-08-16T13:43:35.173Z,30.20
2018-08-16T13:48:38.847Z,30.80
2018-08-16T13:53:42.368Z,30.10
2018-08-16T13:58:45.929Z,29.20
2018-08-16T14:03:49.729Z,28.80
2018-08-16T14:08:53.382Z,29.50
2018-08-16T14:13:56.998Z,29.70
2018-08-16T14:19:00.866Z,29.40
2018-08-16T14:24:05.860Z,29.80
2018-08-16T14:29:09.714Z,29.70
2018-08-16T14:34:13.375Z,29.60
2018-08-16T14:39:16.993Z,29.50
2018-08-16T14:44:20.676Z,30.20
2018-08-16T14:49:24.372Z,29.60
2018-08-16T14:54:28.043Z,29.50
2018-08-16T14:59:31.847Z,29.30
2018-08-16T15:04:35.449Z,29.40
2018-08-16T15:09:39.077Z,29.10
2018-08-16T15:14:42.654Z,28.60
2018-08-16T15:19:46.350Z,28.90
2018-08-16T15:24:49.927Z,28.30
2018-08-16T15:29:53.584Z,28.10
2018-08-16T15:34:57.254Z,27.80
2018-08-16T15:40:00.837Z,27.80
2018-08-16T15:45:04.708Z,27.60
2018-08-16T15:50:08.357Z,28.00
2018-08-16T15:55:12.025Z,27.90
2018-08-16T16:00:15.635Z,27.90
2018-08-16T16:05:19.282Z,28.00
2018-08-16T16:10:23.034Z,28.10
2018-08-16T16:15:26.669Z,27.60
2018-08-16T16:20:30.354Z,27.30
2018-08-16T16:25:34.003Z,27.20
2018-08-16T16:30:37.579Z,27.20
2018-08-16T16:35:41.150Z,27.10
2018-08-16T16:40:44.724Z,27.00
2018-08-16T16:45:48.419Z,27.10
2018-08-16T16:50:52.063Z,27.40
2018-08-16T16:55:55.830Z,27.40
2018-08-16T17:00:59.437Z,27.10
2018-08-16T17:06:03.226Z,27.00
2018-08-16T17:11:06.984Z,26.90
2018-08-16T17:16:11.062Z,26.80
2018-08-16T17:21:14.692Z,26.70
2018-08-16T17:26:18.292Z,26.60
2018-08-16T17:31:22.140Z,26.40
2018-08-16T17:36:25.822Z,26.10
2018-08-16T17:41:29.515Z,26.10
2018-08-16T17:46:33.124Z,26.00
2018-08-16T17:51:36.733Z,26.00
2018-08-16T17:56:40.601Z,25.90
2018-08-16T18:01:44.233Z,25.80
2018-08-16T18:06:47.870Z,25.70
2018-08-16T18:11:51.523Z,25.60
2018-08-16T18:16:55.078Z,25.50
2018-08-16T18:21:58.804Z,25.40
2018-08-16T18:27:02.538Z,25.30
2018-08-16T18:32:06.212Z,25.20
2018-08-16T18:37:09.814Z,25.10
2018-08-16T18:42:13.482Z,25.00
2018-08-16T18:47:17.151Z,25.00
2018-08-16T18:52:20.823Z,24.90
2018-08-16T18:57:24.444Z,24.70
2018-08-16T19:02:28.135Z,24.70
2018-08-16T19:07:31.989Z,24.80
2018-08-16T19:12:35.841Z,24.70
2018-08-16T19:17:39.721Z,24.50
2018-08-16T19:22:43.478Z,24.30
2018-08-16T19:27:47.641Z,24.10
2018-08-16T19:32:51.285Z,24.10
2018-08-16T19:37:55.023Z,24.00
2018-08-16T19:42:58.806Z,23.90
2018-08-16T19:48:02.600Z,23.90
2018-08-16T19:53:06.235Z,23.80
2018-08-16T19:58:13.535Z,23.80
2018-08-16T20:03:17.361Z,23.90
2018-08-16T20:08:21.173Z,23.80
2018-08-16T20:13:24.846Z,23.90
2018-08-16T20:18:29.580Z,23.80
2018-08-16T20:23:33.209Z,23.80
2018-08-16T20:28:36.888Z,23.70
2018-08-16T20:33:40.824Z,23.70
2018-08-16T20:38:44.470Z,23.50
2018-08-16T20:43:48.189Z,23.40
2018-08-16T20:48:51.928Z,23.40
2018-08-16T20:53:55.559Z,23.40
2018-08-16T20:58:59.190Z,23.00
2018-08-16T21:04:02.803Z,22.70
2018-08-16T21:09:08.181Z,22.60
2018-08-16T21:14:11.812Z,22.60
2018-08-16T21:19:15.488Z,22.40
2018-08-16T21:24:19.111Z,22.40
2018-08-16T21:29:22.888Z,22.30
2018-08-16T21:34:26.541Z,22.10
2018-08-16T21:39:30.170Z,22.10
2018-08-16T21:44:33.810Z,22.00
2018-08-16T21:49:37.408Z,22.00
2018-08-16T21:54:40.994Z,21.90
2018-08-16T21:59:44.592Z,21.80
2018-08-16T22:04:48.206Z,21.80
2018-08-16T22:09:51.841Z,21.70
2018-08-16T22:14:55.480Z,21.50
2018-08-16T22:19:59.138Z,21.40
2018-08-16T22:25:02.748Z,21.40
2018-08-16T22:30:06.536Z,21.30
2018-08-16T22:35:10.157Z,21.30
2018-08-16T22:40:14.181Z,21.20
2018-08-16T22:45:17.882Z,21.20
2018-08-16T22:50:21.476Z,21.40
2018-08-16T22:55:25.130Z,22.00
2018-08-16T23:00:28.784Z,22.20
2018-08-16T23:05:32.624Z,22.40
2018-08-16T23:10:36.294Z,22.40
2018-08-16T23:15:40.020Z,22.40
2018-08-16T23:20:43.604Z,22.10
2018-08-16T23:25:47.241Z,22.30
2018-08-16T23:30:50.896Z,22.00
2018-08-16T23:35:54.528Z,21.70
2018-08-16T23:40:58.174Z,21.60
2018-08-16T23:46:01.825Z,21.70
2018-08-16T23:51:05.495Z,21.90
2018-08-16T23:56:09.302Z,21.60
